Historical Weather Data

Soule Park Golf Course
1033 East Ojai Ave
Ojai, CA 93023
Date ET
(Inches)
Rain
(Inches)
Temp °F
Humidity
Avg
Wind MPH
Avg
Solar Wm2
Avg
High Ave Low
12/1/16 0.07 0.00 67.0 50.8 38.7 62 2.6 101
12/2/16 0.08 0.00 66.0 48.9 35.6 57 2.7 105
12/3/16 0.08 0.00 72.3 47.3 29.6 47 2.1 106
12/4/16 0.08 0.00 77.5 52.2 35.4 49 2.3 98
12/5/16 0.07 0.00 70.2 49.1 35.0 67 2.4 92
12/6/16 0.04 0.00 62.6 48.5 37.6 82 2.1 66
12/7/16 0.05 0.00 65.5 47.3 35.3 72 2.1 71
12/8/16 0.06 0.00 68.0 52.4 40.1 72 2.3 84
12/9/16 0.06 0.00 68.9 55.9 47.0 85 2.2 84
12/10/16 0.04 0.00 65.8 54.7 45.0 92 1.8 72
12/11/16 0.05 0.00 68.5 58.5 53.1 86 1.7 76
12/12/16 0.04 0.00 66.3 56.0 46.8 86 1.6 79
12/13/16 0.04 0.00 66.0 52.1 43.2 89 1.5 75
12/14/16 0.05 0.00 72.8 53.3 41.3 82 1.5 80
12/15/16 0.03 0.60 62.1 53.8 46.4 85 1.5 34
12/16/16 0.07 1.31 61.6 54.0 46.7 72 2.8 86
12/17/16 0.07 0.00 61.1 45.2 33.9 58 2.5 94
12/18/16 0.07 0.00 66.9 43.5 28.4 62 2.1 95
12/19/16 0.07 0.00 70.6 45.0 28.4 49 2.4 97
12/20/16 0.08 0.00 78.2 49.5 27.9 48 2.3 93
12/21/16 0.05 0.00 66.4 55.0 48.0 55 2.2 42
12/22/16 0.06 0.00 68.7 55.0 42.2 72 2.5 77
12/23/16 0.02 1.45 59.9 47.9 40.0 91 2.2 34
12/24/16 0.06 0.01 55.5 46.2 36.6 66 3.2 81
12/25/16 0.05 0.00 55.8 42.1 29.8 65 2.3 67
12/26/16 0.06 0.00 63.7 46.4 35.2 61 2.3 77
12/27/16 0.07 0.00 73.3 47.4 30.1 62 2.1 94
12/28/16 0.07 0.00 79.9 52.3 34.1 58 2.1 95
12/29/16 0.08 0.00 82.3 56.2 38.7 51 2.3 90
12/30/16 0.03 0.22 62.5 54.8 50.5 86 2.4 43
12/31/16 0.01 0.08 53.5 48.3 37.2 95 1.1 26